Time;durP1;ratioP1;P1;durP2;ratioP2;P2;SDS_P1;SDS_P2;PMS_P1;PMS_P2;Temp;Humidity;BMP_temperature;BMP_pressure;BME280_temperature;BME280_humidity;BME280_pressure;Samples;Min_cycle;Max_cycle;Signal;HPM_P1;HPM_P2
2021/09/25 00:01:33;;;;;;;1.25;1.15;;;22.70;55.50;;;;;;6293687;28;20040;-72
2021/09/25 00:04:33;;;;;;;1.20;1.02;;;22.70;56.10;;;;;;6293380;28;20029;-73
2021/09/25 00:07:34;;;;;;;1.23;1.10;;;22.70;55.40;;;;;;6292009;28;20103;-73
2021/09/25 00:10:35;;;;;;;1.55;1.17;;;22.70;55.50;;;;;;6291706;28;20515;-72
2021/09/25 00:13:36;;;;;;;1.40;1.20;;;22.70;55.50;;;;;;6292688;28;20068;-71
2021/09/25 00:16:37;;;;;;;2.22;1.45;;;22.70;55.40;;;;;;6292051;28;20103;-73
2021/09/25 00:19:38;;;;;;;1.27;1.17;;;22.70;55.50;;;;;;6292789;28;20021;-72
2021/09/25 00:22:39;;;;;;;1.08;1.00;;;22.70;55.50;;;;;;6293127;28;20099;-71
2021/09/25 00:25:39;;;;;;;1.20;1.08;;;22.70;55.60;;;;;;6292194;28;20041;-72
2021/09/25 00:28:40;;;;;;;1.48;1.23;;;22.70;55.50;;;;;;6292624;28;20459;-72
2021/09/25 00:31:40;;;;;;;1.50;1.20;;;22.70;55.50;;;;;;6292013;28;20036;-72
2021/09/25 00:34:42;;;;;;;1.13;1.02;;;22.70;55.50;;;;;;6292766;28;20123;-72
2021/09/25 00:37:42;;;;;;;1.38;1.10;;;22.70;55.50;;;;;;6292100;28;20428;-72
2021/09/25 00:40:43;;;;;;;1.60;1.08;;;22.70;55.50;;;;;;6291612;28;20037;-72
2021/09/25 00:43:43;;;;;;;1.23;1.00;;;22.70;55.60;;;;;;6292100;28;20033;-72
2021/09/25 00:46:44;;;;;;;1.38;1.20;;;22.70;55.50;;;;;;6292222;28;20037;-72
2021/09/25 00:49:44;;;;;;;1.45;1.20;;;22.70;55.50;;;;;;6290205;28;20149;-72
2021/09/25 00:52:45;;;;;;;1.17;1.08;;;22.70;55.50;;;;;;6292157;28;20055;-72
2021/09/25 00:55:48;;;;;;;1.48;1.30;;;22.70;55.50;;;;;;6291978;28;20058;-72
2021/09/25 00:58:48;;;;;;;2.17;1.02;;;22.70;55.50;;;;;;6292259;28;20025;-72
2021/09/25 01:01:49;;;;;;;1.45;1.23;;;22.70;55.50;;;;;;6291528;28;20020;-72
2021/09/25 01:04:50;;;;;;;1.42;1.27;;;22.70;55.50;;;;;;6291062;28;20040;-73
2021/09/25 01:07:51;;;;;;;1.40;1.30;;;22.70;55.50;;;;;;6291517;28;20052;-72
2021/09/25 01:10:54;;;;;;;1.17;1.00;;;22.70;55.50;;;;;;6291223;28;20052;-72
2021/09/25 01:13:55;;;;;;;1.20;1.00;;;22.70;55.50;;;;;;6290842;28;20041;-72
2021/09/25 01:17:03;;;;;;;1.20;1.00;;;22.70;55.50;;;;;;6291289;28;20063;-72
2021/09/25 01:20:06;;;;;;;1.52;1.35;;;22.70;55.50;;;;;;6291277;28;20094;-72
2021/09/25 01:23:07;;;;;;;1.55;1.23;;;22.70;55.50;;;;;;6291419;28;20025;-73
2021/09/25 01:26:08;;;;;;;1.30;1.20;;;22.70;55.50;;;;;;6290546;28;20043;-72
2021/09/25 01:29:09;;;;;;;1.40;1.30;;;22.70;55.50;;;;;;6290868;28;20032;-72
2021/09/25 01:32:10;;;;;;;1.30;1.20;;;22.70;55.50;;;;;;6291162;28;20444;-72
2021/09/25 01:35:13;;;;;;;1.67;1.30;;;22.70;55.50;;;;;;6291058;28;20041;-72
2021/09/25 01:38:13;;;;;;;1.65;1.17;;;22.70;55.50;;;;;;6289403;28;20031;-72
2021/09/25 01:41:15;;;;;;;1.10;1.00;;;22.70;55.50;;;;;;6290262;28;20024;-72
2021/09/25 01:44:15;;;;;;;1.40;1.30;;;22.70;55.50;;;;;;6290813;28;20074;-72
2021/09/25 01:47:16;;;;;;;1.70;1.10;;;22.70;55.50;;;;;;6289917;28;20484;-72
2021/09/25 01:50:16;;;;;;;1.27;1.10;;;22.70;55.50;;;;;;6291188;28;20070;-72
2021/09/25 01:53:18;;;;;;;1.10;1.00;;;22.70;55.50;;;;;;6290226;28;20025;-72
2021/09/25 01:56:19;;;;;;;1.38;1.05;;;22.70;55.50;;;;;;6290831;28;20025;-72
2021/09/25 01:59:19;;;;;;;1.13;0.98;;;22.70;55.50;;;;;;6290183;28;20373;-72
2021/09/25 02:02:20;;;;;;;1.30;1.20;;;22.70;55.50;;;;;;6290181;28;20037;-72
2021/09/25 02:05:22;;;;;;;0.90;0.80;;;22.70;55.50;;;;;;6289701;28;20036;-72
2021/09/25 02:08:22;;;;;;;3.83;1.15;;;22.70;55.50;;;;;;6289868;28;20044;-72
2021/09/25 02:11:24;;;;;;;1.42;1.10;;;22.70;55.50;;;;;;6290498;28;20017;-72
2021/09/25 02:14:24;;;;;;;1.90;1.27;;;22.70;55.50;;;;;;6283339;28;20472;-72
2021/09/25 02:17:25;;;;;;;1.20;1.00;;;22.70;55.50;;;;;;6284427;28;20032;-72
2021/09/25 02:20:26;;;;;;;1.00;0.90;;;22.70;55.50;;;;;;6290108;28;20021;-70
2021/09/25 02:23:26;;;;;;;1.40;1.13;;;22.70;55.50;;;;;;6290307;28;20033;-72
2021/09/25 02:26:27;;;;;;;1.40;0.93;;;22.70;55.50;;;;;;6289457;28;20496;-72
2021/09/25 02:29:27;;;;;;;1.45;1.05;;;22.70;55.60;;;;;;6289683;28;20036;-73
2021/09/25 02:32:28;;;;;;;1.30;1.00;;;22.70;55.60;;;;;;6289065;28;20020;-73
2021/09/25 02:35:29;;;;;;;1.30;1.13;;;22.70;55.60;;;;;;6289735;28;20028;-72
2021/09/25 02:38:29;;;;;;;1.20;1.10;;;22.70;55.60;;;;;;6289986;28;20472;-72
2021/09/25 02:41:30;;;;;;;0.70;0.70;;;22.70;55.60;;;;;;6289937;28;20592;-72
2021/09/25 02:44:30;;;;;;;1.05;0.90;;;22.70;55.60;;;;;;6289907;28;20423;-72
2021/09/25 02:47:31;;;;;;;1.42;1.08;;;22.70;55.60;;;;;;6289805;28;20082;-72
2021/09/25 02:50:32;;;;;;;1.42;1.20;;;22.70;55.70;;;;;;6289816;28;20029;-72
2021/09/25 02:53:32;;;;;;;1.90;1.02;;;22.70;55.60;;;;;;6289679;28;20504;-72
2021/09/25 02:56:33;;;;;;;1.08;0.98;;;22.70;55.60;;;;;;6289613;28;20017;-72
2021/09/25 02:59:34;;;;;;;1.10;1.00;;;22.70;55.60;;;;;;6289635;28;20025;-72
2021/09/25 03:02:35;;;;;;;1.02;0.93;;;22.70;55.60;;;;;;6289470;28;20074;-73
2021/09/25 03:05:36;;;;;;;1.30;1.13;;;22.70;55.60;;;;;;6289215;28;20363;-72
2021/09/25 03:08:36;;;;;;;1.20;0.98;;;22.70;55.60;;;;;;6289157;28;20048;-72
2021/09/25 03:11:37;;;;;;;1.00;0.80;;;22.70;55.60;;;;;;6289836;28;20054;-72
2021/09/25 03:14:37;;;;;;;1.20;1.10;;;22.70;55.60;;;;;;6288528;28;20437;-72
2021/09/25 03:17:38;;;;;;;1.40;1.30;;;22.70;55.60;;;;;;6289207;28;20432;-72
2021/09/25 03:20:39;;;;;;;2.67;1.35;;;22.70;55.60;;;;;;6289415;28;20071;-72
2021/09/25 03:23:39;;;;;;;1.10;0.90;;;22.70;55.60;;;;;;6289455;28;20104;-72
2021/09/25 03:26:40;;;;;;;1.08;0.98;;;22.70;55.60;;;;;;6288911;28;20044;-72
2021/09/25 03:29:40;;;;;;;1.27;1.13;;;22.70;55.60;;;;;;6288853;28;20364;-72
2021/09/25 03:32:41;;;;;;;1.73;1.05;;;22.70;55.60;;;;;;6289739;28;20364;-72
2021/09/25 03:35:46;;;;;;;1.30;1.05;;;22.70;55.60;;;;;;6289146;28;20024;-73
2021/09/25 03:38:47;;;;;;;1.02;0.93;;;22.70;55.60;;;;;;6289320;28;20039;-72
2021/09/25 03:41:47;;;;;;;1.25;1.15;;;22.70;55.60;;;;;;6290590;28;20016;-72
2021/09/25 03:44:48;;;;;;;0.85;0.82;;;22.70;55.60;;;;;;6293204;28;20017;-72
2021/09/25 03:47:51;;;;;;;0.80;0.80;;;22.70;55.60;;;;;;6293701;28;20082;-72
2021/09/25 03:50:53;;;;;;;1.02;0.80;;;22.70;55.60;;;;;;6293009;28;20032;-72
2021/09/25 03:53:53;;;;;;;1.40;1.08;;;22.70;55.60;;;;;;6293324;28;20052;-73
2021/09/25 03:56:54;;;;;;;1.15;1.05;;;22.70;55.60;;;;;;6293310;28;20065;-72
2021/09/25 04:00:43;;;;;;;1.00;0.90;;;22.70;55.60;;;;;;6293101;28;20442;-72
2021/09/25 04:03:44;;;;;;;1.33;0.90;;;22.70;55.60;;;;;;6293470;28;20487;-72
2021/09/25 04:06:45;;;;;;;1.20;1.10;;;22.70;56.30;;;;;;6292714;28;20045;-72
2021/09/25 04:09:45;;;;;;;0.90;0.90;;;22.70;55.60;;;;;;6292778;28;20060;-72
2021/09/25 04:12:46;;;;;;;1.00;0.90;;;22.70;55.60;;;;;;6294529;28;20039;-73
2021/09/25 04:15:47;;;;;;;1.00;0.85;;;22.70;55.60;;;;;;6289802;28;20519;-72
2021/09/25 04:18:47;;;;;;;1.17;1.00;;;22.70;55.60;;;;;;6293201;28;20376;-72
2021/09/25 04:21:49;;;;;;;1.42;1.02;;;22.70;55.60;;;;;;6292549;28;20042;-72
2021/09/25 04:24:50;;;;;;;1.25;0.98;;;22.70;55.60;;;;;;6292359;28;20154;-72
2021/09/25 04:27:51;;;;;;;1.20;1.10;;;22.70;56.00;;;;;;6292457;28;20063;-72
2021/09/25 04:30:52;;;;;;;1.15;1.05;;;22.70;55.60;;;;;;6292405;28;20024;-72
2021/09/25 04:33:52;;;;;;;1.00;0.90;;;22.70;55.60;;;;;;6292190;28;20082;-72
2021/09/25 04:36:53;;;;;;;1.10;0.90;;;22.70;55.60;;;;;;6292640;28;20491;-72
2021/09/25 04:39:53;;;;;;;1.23;1.05;;;22.70;55.70;;;;;;6291702;28;20025;-72
2021/09/25 04:42:54;;;;;;;1.00;0.90;;;22.70;55.70;;;;;;6292369;28;20052;-72
2021/09/25 04:45:54;;;;;;;0.80;0.80;;;22.70;55.70;;;;;;6291822;28;20043;-72
2021/09/25 04:48:55;;;;;;;1.00;0.82;;;22.70;55.70;;;;;;6292009;28;20458;-72
2021/09/25 04:51:55;;;;;;;1.33;0.95;;;22.70;55.70;;;;;;6292205;28;20020;-72
2021/09/25 04:54:56;;;;;;;0.88;0.80;;;22.70;55.70;;;;;;6291282;28;20123;-72
2021/09/25 04:57:56;;;;;;;1.00;0.90;;;22.70;55.70;;;;;;6292259;28;20499;-72
2021/09/25 05:00:57;;;;;;;1.10;1.00;;;22.70;55.70;;;;;;6290104;28;20033;-72
2021/09/25 05:04:00;;;;;;;1.35;0.80;;;22.70;55.70;;;;;;6267102;28;20040;-72
2021/09/25 05:07:01;;;;;;;1.10;0.80;;;22.70;55.80;;;;;;6283182;28;20040;-72
2021/09/25 05:10:02;;;;;;;0.85;0.70;;;22.70;55.80;;;;;;6291497;28;20083;-72
2021/09/25 05:13:02;;;;;;;0.80;0.80;;;22.70;55.80;;;;;;6291639;28;20537;-72
2021/09/25 05:16:03;;;;;;;0.70;0.70;;;22.70;55.80;;;;;;6276298;28;20036;-72
2021/09/25 05:19:04;;;;;;;2.00;1.10;;;22.70;55.80;;;;;;6291444;28;20056;-72
2021/09/25 05:22:04;;;;;;;0.85;0.82;;;22.70;55.80;;;;;;6291479;28;20094;-73
2021/09/25 05:25:07;;;;;;;1.08;0.93;;;22.70;55.80;;;;;;6291215;28;20048;-72
2021/09/25 05:28:07;;;;;;;1.02;0.93;;;22.70;55.80;;;;;;6290780;28;20035;-72
2021/09/25 05:31:11;;;;;;;1.02;0.93;;;22.70;55.80;;;;;;6291004;28;20052;-72
2021/09/25 05:34:12;;;;;;;1.10;1.00;;;22.70;55.80;;;;;;6291442;28;20028;-72
2021/09/25 05:37:14;;;;;;;1.27;0.95;;;22.70;55.90;;;;;;6290955;28;20055;-72
2021/09/25 05:40:15;;;;;;;0.88;0.88;;;22.70;55.80;;;;;;6291204;28;20033;-72
2021/09/25 05:43:15;;;;;;;1.15;1.00;;;22.70;55.80;;;;;;6290995;28;20387;-72
2021/09/25 05:46:16;;;;;;;1.02;0.93;;;22.70;55.80;;;;;;6290209;28;20039;-72
2021/09/25 05:49:17;;;;;;;1.27;0.77;;;22.70;55.80;;;;;;6291231;28;20032;-72
2021/09/25 05:52:18;;;;;;;0.80;0.80;;;22.70;55.80;;;;;;6290518;28;20028;-72
2021/09/25 05:55:21;;;;;;;0.82;0.77;;;22.70;55.80;;;;;;6290461;28;20063;-72
2021/09/25 05:58:22;;;;;;;0.63;0.63;;;22.70;55.80;;;;;;6291168;28;20063;-72
2021/09/25 06:01:22;;;;;;;1.35;0.90;;;22.70;55.80;;;;;;6290535;28;20028;-73
2021/09/25 06:04:23;;;;;;;1.00;0.80;;;22.70;55.80;;;;;;6290027;28;20025;-72
2021/09/25 06:07:24;;;;;;;0.98;0.90;;;22.70;55.80;;;;;;6289833;28;20033;-72
2021/09/25 06:10:24;;;;;;;1.20;0.90;;;22.70;55.80;;;;;;6290265;28;20668;-72
2021/09/25 06:13:25;;;;;;;0.90;0.80;;;22.70;55.80;;;;;;6290722;28;20044;-72
2021/09/25 06:16:25;;;;;;;0.93;0.90;;;22.70;55.80;;;;;;6266758;28;20033;-72
2021/09/25 06:19:26;;;;;;;1.08;0.90;;;22.70;55.80;;;;;;6285870;28;20028;-73
2021/09/25 06:22:27;;;;;;;0.80;0.77;;;22.70;55.80;;;;;;6290259;28;20557;-72
2021/09/25 06:25:27;;;;;;;0.70;0.70;;;22.70;55.80;;;;;;6289980;28;20039;-72
2021/09/25 06:28:29;;;;;;;1.10;0.98;;;22.80;55.90;;;;;;6289990;28;20204;-72
2021/09/25 06:31:29;;;;;;;1.55;0.98;;;22.70;55.80;;;;;;6288970;28;20033;-72
2021/09/25 06:34:30;;;;;;;1.00;0.90;;;22.70;55.80;;;;;;6290419;28;20399;-72
2021/09/25 06:37:31;;;;;;;1.20;0.90;;;22.70;55.80;;;;;;6289413;28;20468;-72
2021/09/25 06:40:31;;;;;;;1.10;0.88;;;22.70;55.90;;;;;;6289850;28;20029;-72
2021/09/25 06:43:32;;;;;;;1.10;1.00;;;22.70;55.80;;;;;;6289898;28;20023;-72
2021/09/25 06:46:33;;;;;;;0.98;0.70;;;22.70;55.80;;;;;;6289823;28;20111;-72
2021/09/25 06:49:33;;;;;;;1.10;0.95;;;22.70;55.80;;;;;;6289995;28;20033;-72
2021/09/25 06:52:34;;;;;;;1.05;0.80;;;22.70;55.90;;;;;;6289848;28;20526;-72
2021/09/25 06:55:35;;;;;;;1.27;0.90;;;22.70;55.90;;;;;;6289629;28;20438;-72
2021/09/25 06:58:35;;;;;;;1.02;0.85;;;22.70;55.80;;;;;;6290216;28;20055;-72
2021/09/25 07:01:36;;;;;;;0.88;0.70;;;22.70;55.90;;;;;;6289795;28;20029;-72
2021/09/25 07:04:36;;;;;;;0.80;0.80;;;22.70;55.90;;;;;;6289210;28;20035;-72
2021/09/25 07:07:37;;;;;;;1.40;1.05;;;22.70;55.90;;;;;;6289637;28;20040;-72
2021/09/25 07:10:38;;;;;;;0.90;0.90;;;22.70;55.90;;;;;;6289442;28;20463;-72
2021/09/25 07:13:38;;;;;;;0.70;0.70;;;22.70;55.90;;;;;;6288931;28;20028;-72
2021/09/25 07:16:39;;;;;;;1.05;0.80;;;22.70;55.90;;;;;;6278601;28;20029;-72
2021/09/25 07:19:39;;;;;;;0.90;0.80;;;22.70;55.90;;;;;;6294214;28;20423;-72
2021/09/25 07:22:40;;;;;;;1.00;0.90;;;22.70;55.90;;;;;;6294154;28;20457;-72
2021/09/25 07:25:40;;;;;;;0.88;0.80;;;22.70;56.00;;;;;;6293774;28;20119;-72
2021/09/25 07:28:41;;;;;;;0.70;0.70;;;22.70;55.90;;;;;;6294681;28;20021;-73
2021/09/25 07:31:42;;;;;;;1.15;0.90;;;22.70;55.90;;;;;;6294683;28;20025;-72
2021/09/25 07:34:43;;;;;;;0.93;0.80;;;22.70;55.90;;;;;;6293949;28;20369;-72
2021/09/25 07:37:44;;;;;;;0.80;0.80;;;22.70;55.90;;;;;;6293492;28;20028;-72
2021/09/25 07:40:44;;;;;;;1.35;0.98;;;22.70;55.90;;;;;;6293970;28;20529;-72
2021/09/25 07:43:45;;;;;;;1.85;0.70;;;22.70;55.90;;;;;;6293961;28;20032;-72
2021/09/25 07:46:46;;;;;;;1.10;0.80;;;22.70;55.90;;;;;;6293380;28;20035;-72
2021/09/25 07:49:46;;;;;;;1.35;1.02;;;22.70;55.90;;;;;;6293393;28;20040;-72
2021/09/25 07:52:47;;;;;;;0.88;0.70;;;22.80;55.90;;;;;;6294042;28;20042;-72
2021/09/25 07:55:48;;;;;;;1.05;0.73;;;22.70;55.90;;;;;;6293246;28;20426;-72
2021/09/25 07:58:48;;;;;;;1.40;0.85;;;22.70;55.90;;;;;;6293687;28;20476;-73
2021/09/25 08:01:49;;;;;;;0.68;0.68;;;22.70;55.90;;;;;;6293045;28;20387;-72
2021/09/25 08:04:50;;;;;;;0.73;0.73;;;22.70;55.90;;;;;;6292885;28;20503;-72
2021/09/25 08:07:50;;;;;;;0.80;0.70;;;22.70;55.90;;;;;;6293296;28;20032;-72
2021/09/25 08:10:51;;;;;;;1.20;0.98;;;22.70;55.90;;;;;;6292920;28;20090;-72
2021/09/25 08:13:51;;;;;;;1.10;0.90;;;22.80;55.90;;;;;;6290742;28;20024;-72
2021/09/25 08:16:52;;;;;;;0.80;0.60;;;22.70;55.90;;;;;;6288174;28;20506;-72
2021/09/25 08:19:53;;;;;;;1.10;0.90;;;22.70;55.90;;;;;;6292437;28;20082;-72
2021/09/25 08:22:55;;;;;;;1.00;0.88;;;22.70;55.90;;;;;;6293489;28;20063;-72
2021/09/25 08:25:55;;;;;;;1.25;0.80;;;22.80;56.00;;;;;;6274288;28;20048;-71
2021/09/25 08:28:57;;;;;;;1.13;0.90;;;22.70;55.90;;;;;;6280522;28;20203;-72
2021/09/25 08:31:57;;;;;;;0.73;0.73;;;22.70;55.90;;;;;;6289505;28;20020;-72
2021/09/25 08:34:58;;;;;;;1.92;0.90;;;22.70;56.00;;;;;;6291217;28;20308;-72
2021/09/25 08:37:58;;;;;;;1.27;0.90;;;22.70;56.00;;;;;;6290530;28;20025;-72
2021/09/25 08:40:59;;;;;;;5.40;1.00;;;22.80;56.80;;;;;;6289880;28;20029;-72
2021/09/25 08:44:00;;;;;;;0.77;0.70;;;22.80;56.10;;;;;;6287032;28;20028;-72
2021/09/25 08:47:00;;;;;;;1.00;0.82;;;22.70;56.00;;;;;;6290261;28;20032;-72
2021/09/25 08:50:02;;;;;;;1.08;0.80;;;22.80;56.10;;;;;;6290981;28;20060;-72
2021/09/25 08:53:03;;;;;;;0.95;0.82;;;22.70;56.00;;;;;;6289329;28;20059;-72
2021/09/25 08:56:04;;;;;;;1.23;0.90;;;22.70;56.10;;;;;;6290224;28;20028;-72
2021/09/25 08:59:07;;;;;;;2.58;0.82;;;22.70;56.10;;;;;;6290507;28;20479;-73
2021/09/25 09:02:20;;;;;;;0.70;0.60;;;22.70;56.10;;;;;;6290467;28;20249;-72
2021/09/25 09:05:28;;;;;;;1.52;0.90;;;22.70;56.20;;;;;;6288189;28;20082;-72
2021/09/25 09:08:29;;;;;;;3.17;1.10;;;22.70;56.20;;;;;;6288292;28;20101;-71
2021/09/25 09:11:30;;;;;;;1.20;1.00;;;22.70;56.30;;;;;;6289685;28;20119;-72
2021/09/25 09:14:41;;;;;;;2.53;1.45;;;22.70;56.40;;;;;;6282138;28;20033;-72
2021/09/25 09:17:42;;;;;;;1.55;1.30;;;22.70;56.50;;;;;;6277721;28;20028;-72
2021/09/25 09:21:05;;;;;;;2.25;0.93;;;22.70;56.50;;;;;;6287926;28;20093;-72
2021/09/25 09:24:09;;;;;;;1.15;0.95;;;22.70;56.50;;;;;;6290251;28;20543;-72
2021/09/25 09:27:16;;;;;;;2.13;1.02;;;22.80;56.60;;;;;;6289051;28;20032;-72
2021/09/25 09:30:17;;;;;;;2.35;1.20;;;22.70;56.50;;;;;;6288043;28;20741;-72
2021/09/25 09:33:38;;;;;;;2.58;1.10;;;22.70;56.50;;;;;;6289701;28;20053;-72
2021/09/25 09:36:41;;;;;;;2.05;1.23;;;22.80;56.60;;;;;;6283320;28;20032;-72
2021/09/25 09:39:42;;;;;;;1.42;1.15;;;22.80;56.60;;;;;;6289794;28;20418;-72
2021/09/25 09:42:47;;;;;;;2.42;1.05;;;22.80;56.70;;;;;;6284103;28;20152;-72
2021/09/25 09:45:48;;;;;;;1.02;0.90;;;22.70;56.50;;;;;;6288660;28;20043;-72
2021/09/25 09:48:55;;;;;;;2.95;1.10;;;22.70;56.50;;;;;;6288924;28;20068;-72
2021/09/25 09:51:58;;;;;;;1.63;1.10;;;22.80;56.60;;;;;;6283776;28;20029;-72
2021/09/25 09:54:58;;;;;;;2.10;1.10;;;22.80;56.60;;;;;;6287757;28;20297;-72
2021/09/25 09:58:02;;;;;;;1.38;0.90;;;22.80;56.50;;;;;;6283234;28;20495;-72
2021/09/25 10:01:02;;;;;;;4.03;1.10;;;22.80;56.50;;;;;;6285550;28;20017;-72
2021/09/25 10:04:04;;;;;;;6.75;1.10;;;22.80;57.20;;;;;;6287041;28;20576;-71
2021/09/25 10:07:06;;;;;;;3.83;1.08;;;22.80;56.50;;;;;;6281989;28;20510;-72
2021/09/25 10:10:07;;;;;;;3.08;1.02;;;22.80;57.30;;;;;;6288511;28;20052;-72
2021/09/25 10:13:08;;;;;;;6.00;1.10;;;22.80;56.60;;;;;;6288785;28;20109;-71
2021/09/25 10:16:10;;;;;;;3.72;0.98;;;22.80;56.60;;;;;;6278062;28;20059;-72
2021/09/25 10:19:12;;;;;;;2.30;1.20;;;22.80;56.60;;;;;;6287558;28;20587;-72
2021/09/25 10:22:24;;;;;;;1.48;1.10;;;22.80;56.60;;;;;;6285581;28;20272;-72
2021/09/25 10:25:25;;;;;;;1.60;1.00;;;22.80;56.60;;;;;;6288716;28;20032;-72
2021/09/25 10:28:27;;;;;;;3.00;1.13;;;22.80;56.60;;;;;;6288428;28;20094;-72
2021/09/25 10:31:28;;;;;;;3.20;1.00;;;22.80;56.70;;;;;;6286787;28;20081;-73
2021/09/25 10:34:29;;;;;;;8.45;1.42;;;22.80;56.60;;;;;;6289672;28;20499;-73
2021/09/25 10:37:45;;;;;;;5.05;1.30;;;22.80;56.70;;;;;;6284598;28;20107;-73
2021/09/25 10:40:46;;;;;;;2.38;1.20;;;22.80;56.80;;;;;;6288999;28;20056;-72
2021/09/25 10:43:48;;;;;;;1.60;0.88;;;22.80;56.70;;;;;;6287458;28;20121;-72
2021/09/25 10:46:49;;;;;;;3.28;1.20;;;22.80;56.80;;;;;;6288520;28;20028;-72
2021/09/25 10:49:56;;;;;;;3.22;1.30;;;22.80;56.70;;;;;;6288796;28;20027;-72
2021/09/25 10:53:17;;;;;;;5.57;1.10;;;22.80;56.80;;;;;;6291259;28;20024;-72
2021/09/25 10:56:25;;;;;;;2.25;1.20;;;22.80;56.80;;;;;;6291783;28;20037;-72
2021/09/25 10:59:25;;;;;;;2.55;0.98;;;22.80;56.70;;;;;;6293577;28;20032;-72
2021/09/25 11:02:41;;;;;;;2.55;1.02;;;22.80;56.80;;;;;;6293117;28;20032;-73
2021/09/25 11:06:14;;;;;;;1.75;1.00;;;22.80;56.80;;;;;;6292242;28;20051;-72
2021/09/25 11:09:32;;;;;;;3.42;0.90;;;22.80;56.80;;;;;;6272704;28;20071;-72
2021/09/25 11:12:45;;;;;;;3.25;1.45;;;22.80;56.70;;;;;;6292398;28;20032;-72
2021/09/25 11:16:03;;;;;;;23.65;3.30;;;22.80;56.80;;;;;;6289780;28;20169;-72
2021/09/25 11:19:26;;;;;;;25.70;4.47;;;22.80;58.40;;;;;;6293061;28;20029;-72
2021/09/25 11:22:29;;;;;;;14.00;3.50;;;22.80;58.70;;;;;;6274013;28;20081;-72
2021/09/25 11:25:32;;;;;;;29.73;3.72;;;22.70;59.00;;;;;;6291793;28;20024;-72
2021/09/25 11:28:33;;;;;;;8.50;2.60;;;22.70;59.00;;;;;;6292389;28;20514;-73
2021/09/25 11:31:35;;;;;;;9.23;2.83;;;22.70;59.30;;;;;;6291954;28;20495;-72
2021/09/25 11:34:36;;;;;;;9.27;2.63;;;22.70;59.40;;;;;;6291758;28;20364;-72
2021/09/25 11:37:51;;;;;;;9.77;2.80;;;22.70;59.40;;;;;;6292284;28;20024;-73
2021/09/25 11:40:52;;;;;;;11.43;2.58;;;22.70;59.60;;;;;;6292584;28;20082;-72
2021/09/25 11:43:55;;;;;;;8.68;2.92;;;22.70;59.60;;;;;;6292689;28;20399;-73
2021/09/25 11:46:58;;;;;;;8.07;2.95;;;22.60;59.80;;;;;;6290593;28;20040;-73
2021/09/25 11:50:21;;;;;;;7.50;2.80;;;22.60;60.10;;;;;;6289347;28;20029;-72
2021/09/25 11:53:23;;;;;;;4.85;2.50;;;22.60;59.90;;;;;;6287865;28;20479;-73
2021/09/25 11:56:28;;;;;;;4.43;2.55;;;22.70;60.40;;;;;;6282106;28;20365;-73
2021/09/25 11:59:29;;;;;;;4.82;2.80;;;22.70;60.70;;;;;;6291202;28;20415;-73
2021/09/25 12:02:42;;;;;;;9.23;2.40;;;22.60;60.40;;;;;;6291494;28;20032;-73
2021/09/25 12:05:48;;;;;;;4.65;2.97;;;22.60;60.40;;;;;;6291621;28;20128;-72
2021/09/25 12:08:50;;;;;;;6.10;2.50;;;22.70;60.70;;;;;;6287908;28;20464;-73
2021/09/25 12:11:50;;;;;;;7.43;2.95;;;22.70;60.80;;;;;;6290185;28;20028;-73
2021/09/25 12:14:51;;;;;;;4.00;2.17;;;22.60;60.70;;;;;;6280901;28;20117;-72
2021/09/25 12:18:05;;;;;;;4.35;2.70;;;22.60;60.60;;;;;;6288801;28;20033;-72
2021/09/25 12:21:11;;;;;;;3.92;2.22;;;22.60;60.80;;;;;;6285583;28;20068;-72
2021/09/25 12:24:12;;;;;;;3.78;2.38;;;22.60;60.80;;;;;;6290597;28;20024;-72
2021/09/25 12:27:23;;;;;;;4.25;2.15;;;22.60;60.70;;;;;;6285934;28;20391;-72
2021/09/25 12:30:24;;;;;;;3.88;2.15;;;22.60;60.40;;;;;;6291990;28;20033;-73
2021/09/25 12:33:25;;;;;;;4.90;2.38;;;22.60;60.40;;;;;;6290704;28;20462;-72
2021/09/25 12:36:34;;;;;;;3.95;2.50;;;22.60;60.50;;;;;;6286179;28;20060;-72
2021/09/25 12:39:36;;;;;;;3.33;2.00;;;22.60;60.30;;;;;;6291671;28;20028;-72
2021/09/25 12:42:39;;;;;;;6.38;2.22;;;22.60;60.20;;;;;;6290944;28;20533;-73
2021/09/25 12:45:39;;;;;;;4.40;2.00;;;22.60;60.20;;;;;;6290239;28;20028;-73
2021/09/25 12:49:05;;;;;;;4.18;2.40;;;22.60;60.20;;;;;;6289009;28;20031;-73
2021/09/25 12:52:08;;;;;;;;;;;22.70;60.60;;;;;;6287365;28;20101;-73
2021/09/25 12:55:10;;;;;;;4.50;2.45;;;22.60;60.30;;;;;;6291075;28;19961;-72
2021/09/25 12:58:17;;;;;;;5.95;2.08;;;22.60;60.60;;;;;;6289960;28;20108;-72
2021/09/25 13:01:28;;;;;;;4.57;2.33;;;22.70;60.80;;;;;;6284019;28;20021;-72
2021/09/25 13:04:30;;;;;;;4.53;2.33;;;22.60;60.70;;;;;;6310342;28;20536;-73
2021/09/25 13:07:37;;;;;;;3.05;2.10;;;22.60;60.80;;;;;;6289226;28;20492;-73
2021/09/25 13:10:47;;;;;;;5.05;2.33;;;22.60;60.70;;;;;;6289476;28;20060;-71
2021/09/25 13:14:07;;;;;;;3.38;2.10;;;22.60;60.60;;;;;;6289901;28;20024;-73
2021/09/25 13:17:08;;;;;;;3.67;1.95;;;22.60;60.60;;;;;;6274311;28;20032;-73
2021/09/25 13:20:12;;;;;;;3.97;1.92;;;22.60;60.60;;;;;;6289652;28;20543;-72
2021/09/25 13:23:18;;;;;;;3.23;2.00;;;22.60;60.80;;;;;;6288053;28;20033;-72
2021/09/25 13:26:19;;;;;;;5.00;2.60;;;22.60;61.00;;;;;;6287364;28;21289;-72
2021/09/25 13:29:20;;;;;;;3.95;2.30;;;22.60;61.00;;;;;;6289820;28;20025;-72
2021/09/25 13:32:21;;;;;;;2.75;1.95;;;22.60;60.70;;;;;;6289047;28;20032;-73
2021/09/25 13:35:22;;;;;;;2.97;1.98;;;22.60;61.90;;;;;;6288381;28;20380;-72
2021/09/25 13:38:23;;;;;;;4.38;2.25;;;22.60;61.10;;;;;;6289055;28;20047;-72
2021/09/25 13:41:24;;;;;;;3.08;2.08;;;22.60;61.20;;;;;;6283741;28;20107;-72
2021/09/25 13:44:24;;;;;;;4.38;2.70;;;22.60;60.80;;;;;;6289802;28;20047;-73
2021/09/25 13:47:25;;;;;;;6.18;2.40;;;22.60;60.90;;;;;;6287781;28;20036;-73
2021/09/25 13:50:25;;;;;;;13.27;2.75;;;22.60;61.10;;;;;;6288338;28;20028;-72
2021/09/25 13:53:26;;;;;;;5.63;2.65;;;22.70;61.10;;;;;;6284709;28;20111;-72
2021/09/25 13:56:27;;;;;;;6.05;2.60;;;22.70;61.30;;;;;;6287683;28;20028;-72
2021/09/25 13:59:27;;;;;;;3.78;2.38;;;22.60;61.20;;;;;;6297597;28;20032;-72
2021/09/25 14:02:28;;;;;;;4.13;2.30;;;22.60;61.40;;;;;;6287437;28;20035;-72
2021/09/25 14:05:30;;;;;;;6.78;2.60;;;22.70;61.40;;;;;;6287477;28;20032;-72
2021/09/25 14:08:30;;;;;;;5.97;2.70;;;22.60;61.60;;;;;;6286593;28;20048;-72
2021/09/25 14:11:31;;;;;;;6.07;2.90;;;22.60;61.50;;;;;;6288352;28;20609;-72
2021/09/25 14:14:32;;;;;;;5.72;2.88;;;22.60;61.60;;;;;;6280081;28;20037;-72
2021/09/25 14:17:33;;;;;;;4.43;2.40;;;22.60;61.50;;;;;;6270272;28;20035;-72
2021/09/25 14:20:36;;;;;;;4.25;2.50;;;22.60;61.20;;;;;;6280726;28;20334;-72
2021/09/25 14:23:37;;;;;;;4.47;2.78;;;22.60;61.20;;;;;;6272677;28;20033;-73
2021/09/25 14:26:38;;;;;;;4.65;2.53;;;22.60;61.50;;;;;;6269932;28;20067;-73
2021/09/25 14:29:41;;;;;;;6.03;2.70;;;22.60;61.20;;;;;;6281798;28;20056;-72
2021/09/25 14:32:41;;;;;;;2.90;2.42;;;22.60;61.30;;;;;;6282951;28;20074;-72
2021/09/25 14:35:42;;;;;;;4.93;3.03;;;22.60;61.40;;;;;;6288180;28;20025;-72
2021/09/25 14:38:43;;;;;;;5.75;3.00;;;22.60;61.60;;;;;;6287028;28;20025;-72
2021/09/25 14:41:43;;;;;;;5.43;2.60;;;22.60;61.50;;;;;;6288036;28;20111;-72
2021/09/25 14:44:44;;;;;;;6.38;3.10;;;22.60;61.90;;;;;;6296875;28;20028;-72
2021/09/25 14:47:44;;;;;;;6.85;3.72;;;22.60;61.70;;;;;;6283760;28;20037;-72
2021/09/25 14:50:46;;;;;;;5.13;3.05;;;22.60;61.90;;;;;;6284221;28;20531;-72
2021/09/25 14:53:46;;;;;;;9.77;3.35;;;22.70;61.50;;;;;;6285544;28;20070;-72
2021/09/25 14:56:48;;;;;;;8.13;3.15;;;22.70;61.40;;;;;;6288597;28;20032;-72
2021/09/25 14:59:49;;;;;;;7.47;3.22;;;22.70;61.00;;;;;;6289785;28;20387;-72
2021/09/25 15:02:49;;;;;;;7.22;2.78;;;22.80;60.90;;;;;;6290190;28;20028;-72
2021/09/25 15:05:50;;;;;;;5.70;2.78;;;22.70;60.70;;;;;;6289115;28;20056;-72
2021/09/25 15:08:51;;;;;;;7.18;2.90;;;22.70;60.50;;;;;;6289577;28;20113;-72
2021/09/25 15:11:52;;;;;;;8.20;3.50;;;22.70;60.40;;;;;;6289588;28;20085;-72
2021/09/25 15:14:52;;;;;;;3.22;2.50;;;22.70;60.40;;;;;;6281641;28;20032;-72
2021/09/25 15:17:53;;;;;;;3.58;2.53;;;22.70;60.30;;;;;;6290052;28;20017;-71
2021/09/25 15:20:54;;;;;;;3.85;2.60;;;22.70;60.20;;;;;;6290203;28;20475;-73
2021/09/25 15:23:55;;;;;;;3.65;2.50;;;22.70;60.00;;;;;;6289878;28;20498;-72
2021/09/25 15:26:55;;;;;;;4.65;2.58;;;22.70;60.90;;;;;;6288915;28;20033;-72
2021/09/25 15:29:56;;;;;;;6.10;2.72;;;22.70;59.90;;;;;;6289076;28;20063;-73
2021/09/25 15:32:57;;;;;;;4.55;2.28;;;22.70;59.90;;;;;;6289244;28;20036;-72
2021/09/25 15:35:57;;;;;;;2.88;2.17;;;22.70;59.80;;;;;;6289782;28;20280;-72
2021/09/25 15:38:58;;;;;;;4.13;2.30;;;22.70;59.70;;;;;;6292717;28;20033;-72
2021/09/25 15:41:58;;;;;;;5.40;1.98;;;22.70;59.70;;;;;;6293712;28;20028;-72
2021/09/25 15:44:59;;;;;;;2.88;1.90;;;22.70;59.60;;;;;;6293565;28;20442;-72
2021/09/25 15:47:59;;;;;;;3.85;2.70;;;22.70;59.50;;;;;;6293795;28;20067;-72
2021/09/25 15:51:00;;;;;;;3.25;2.20;;;22.70;59.50;;;;;;6292135;28;20028;-72